Time;durP1;ratioP1;P1;durP2;ratioP2;P2;SDS_P1;SDS_P2;PMS_P1;PMS_P2;Temp;Humidity;BMP_temperature;BMP_pressure;BME280_temperature;BME280_humidity;BME280_pressure;Samples;Min_cycle;Max_cycle;Signal;HPM_P1;HPM_P2
2023/08/09 00:02:11;;;;;;;5.72;3.55;;;;;;;16.37;67.54;99393.63;4972780;28;20053;-83
2023/08/09 00:04:38;;;;;;;4.60;3.65;;;;;;;16.34;67.66;99393.06;4975102;28;20449;-83
2023/08/09 00:07:04;;;;;;;4.68;3.58;;;;;;;16.32;67.65;99389.66;4974401;28;20053;-82
2023/08/09 00:09:31;;;;;;;4.30;3.30;;;;;;;16.27;67.87;99393.56;4974643;28;20078;-83
2023/08/09 00:11:58;;;;;;;3.90;3.15;;;;;;;16.24;67.72;99390.34;4974350;28;20053;-83
2023/08/09 00:14:24;;;;;;;4.22;3.30;;;;;;;16.20;67.90;99387.13;4955656;28;20503;-82
2023/08/09 00:16:51;;;;;;;4.55;3.10;;;;;;;16.17;68.03;99387.38;4956910;28;20113;-87
2023/08/09 00:19:20;;;;;;;5.22;3.75;;;;;;;16.12;67.97;99387.78;4974973;28;20047;-83
2023/08/09 00:21:46;;;;;;;6.47;3.45;;;;;;;16.11;68.16;99385.28;4974556;28;20134;-83
2023/08/09 00:24:13;;;;;;;4.65;3.63;;;;;;;16.07;68.25;99384.69;4972487;28;20043;-82
2023/08/09 00:26:40;;;;;;;4.93;3.22;;;;;;;16.05;68.42;99385.78;4973839;28;20039;-82
2023/08/09 00:29:06;;;;;;;4.80;3.72;;;;;;;16.04;68.50;99386.78;4974316;28;20617;-82
2023/08/09 00:31:33;;;;;;;5.72;4.10;;;;;;;16.02;68.49;99386.91;4974592;28;20065;-83
2023/08/09 00:34:00;;;;;;;5.38;3.58;;;;;;;16.00;68.53;99376.41;4974093;28;20050;-82
2023/08/09 00:36:27;;;;;;;4.97;3.88;;;;;;;15.98;68.92;99383.69;4974248;28;20134;-82
2023/08/09 00:38:53;;;;;;;9.85;4.20;;;;;;;15.97;68.91;99381.16;4956918;28;20435;-83
2023/08/09 00:41:20;;;;;;;4.72;3.50;;;;;;;15.98;68.94;99385.47;4974193;28;20068;-83
2023/08/09 00:43:47;;;;;;;4.45;3.92;;;;;;;15.97;69.01;99383.81;4974242;28;20488;-82
2023/08/09 00:46:13;;;;;;;5.82;3.78;;;;;;;15.97;68.96;99387.31;4957117;28;20054;-82
2023/08/09 00:48:40;;;;;;;7.25;4.15;;;;;;;15.97;69.29;99386.47;4956557;28;20479;-82
2023/08/09 00:51:06;;;;;;;6.28;3.85;;;;;;;15.98;69.50;99385.47;4973796;28;20043;-82
2023/08/09 00:53:34;;;;;;;5.43;4.07;;;;;;;15.97;69.39;99383.81;4956329;28;20550;-82
2023/08/09 00:56:01;;;;;;;5.07;4.35;;;;;;;15.96;69.10;99388.25;4972608;28;20129;-82
2023/08/09 00:58:27;;;;;;;7.50;4.22;;;;;;;15.97;69.36;99383.81;4973492;28;20129;-81
2023/08/09 01:00:53;;;;;;;5.45;4.57;;;;;;;15.96;69.77;99388.25;4956754;28;20121;-82
2023/08/09 01:03:20;;;;;;;7.18;4.28;;;;;;;15.95;69.58;99386.59;4970733;28;20409;-82
2023/08/09 01:06:20;;;;;;;4.38;3.88;;;;;;;15.90;70.01;99394.06;4973708;28;20054;-82
2023/08/09 01:09:03;;;;;;;4.30;3.58;;;;;;;15.94;69.98;99386.69;4973344;28;20412;-83
2023/08/09 01:11:40;;;;;;;5.73;4.50;;;;;;;15.96;69.96;99379.47;4956656;28;20078;-82
2023/08/09 01:14:08;;;;;;;5.60;4.18;;;;;;;15.98;69.71;99383.69;4973594;28;20045;-83
2023/08/09 01:16:36;;;;;;;4.95;3.92;;;;;;;15.97;69.78;99382.00;4972976;28;20094;-82
2023/08/09 01:19:09;;;;;;;4.35;3.88;;;;;;;15.97;70.04;99386.47;4973321;28;20057;-82
2023/08/09 01:21:39;;;;;;;6.15;4.25;;;;;;;15.97;69.86;99386.47;4973240;28;20051;-83
2023/08/09 01:24:08;;;;;;;5.32;4.78;;;;;;;15.97;70.02;99400.59;4956313;28;20050;-82
2023/08/09 01:26:38;;;;;;;6.10;4.53;;;;;;;15.95;70.29;99397.19;4972990;28;20149;-82
2023/08/09 01:29:05;;;;;;;5.63;4.50;;;;;;;15.98;70.26;99401.41;4956111;28;20102;-82
2023/08/09 01:31:31;;;;;;;5.47;4.43;;;;;;;15.99;70.34;99397.78;4973064;28;20051;-83
2023/08/09 01:33:58;;;;;;;4.80;4.32;;;;;;;15.99;70.47;99401.28;4973178;28;20046;-82
2023/08/09 01:36:31;;;;;;;6.18;4.53;;;;;;;16.00;70.84;99408.25;4955972;28;20050;-83
2023/08/09 01:39:03;;;;;;;6.82;5.15;;;;;;;16.00;70.86;99412.75;4971564;28;20051;-84
2023/08/09 01:41:30;;;;;;;6.75;4.80;;;;;;;16.02;70.17;99411.66;4973220;28;20078;-81
2023/08/09 01:43:57;;;;;;;7.47;5.35;;;;;;;16.02;70.48;99408.13;4955754;28;20054;-82
2023/08/09 01:46:25;;;;;;;6.63;5.30;;;;;;;16.01;70.80;99412.59;4971752;28;20046;-82
2023/08/09 01:49:07;;;;;;;5.55;4.85;;;;;;;15.98;70.93;99409.38;4972955;28;20051;-82
2023/08/09 01:51:33;;;;;;;7.18;5.43;;;;;;;16.02;70.36;99414.28;4973066;28;20514;-85
2023/08/09 01:54:00;;;;;;;10.88;6.07;;;;;;;16.01;70.50;99417.91;4972796;28;20047;-82
2023/08/09 01:56:27;;;;;;;7.13;5.75;;;;;;;16.00;70.56;99418.06;4972167;28;20129;-82
2023/08/09 01:58:53;;;;;;;8.23;5.70;;;;;;;15.99;70.39;99427.81;4971976;28;20069;-83
2023/08/09 02:01:20;;;;;;;6.88;5.80;;;;;;;15.98;70.30;99420.84;4960321;28;20051;-82
2023/08/09 02:03:46;;;;;;;6.65;5.53;;;;;;;15.97;70.45;99424.47;4953542;29;20126;-83
2023/08/09 02:06:13;;;;;;;6.75;6.15;;;;;;;15.98;70.69;99427.94;4953573;29;20043;-82
2023/08/09 02:08:42;;;;;;;6.78;6.10;;;;;;;15.98;70.60;99436.78;4953109;29;20055;-81
2023/08/09 02:11:09;;;;;;;7.20;6.15;;;;;;;16.00;70.55;99432.16;4934404;28;20047;-83
2023/08/09 02:13:39;;;;;;;8.15;6.63;;;;;;;16.01;70.48;99433.84;4963915;28;20483;-83
2023/08/09 02:16:06;;;;;;;10.00;6.88;;;;;;;16.02;70.33;99442.66;4954726;28;20051;-84
2023/08/09 02:18:34;;;;;;;7.40;6.57;;;;;;;16.02;70.46;99445.31;4971707;28;20039;-81
2023/08/09 02:21:04;;;;;;;7.82;6.93;;;;;;;16.02;70.49;99448.81;4972510;28;20137;-83
2023/08/09 02:23:31;;;;;;;10.35;6.88;;;;;;;16.02;70.33;99454.13;4972599;28;20043;-83
2023/08/09 02:25:58;;;;;;;9.73;7.30;;;;;;;16.03;70.37;99449.63;4972500;28;20464;-83
2023/08/09 02:28:24;;;;;;;8.82;7.07;;;;;;;16.02;70.48;99450.59;4972192;28;20125;-82
2023/08/09 02:30:51;;;;;;;7.82;6.63;;;;;;;16.04;70.39;99450.47;4972793;28;20049;-82
2023/08/09 02:33:18;;;;;;;8.02;7.00;;;;;;;16.03;70.19;99454.94;4955252;28;20039;-81
2023/08/09 02:36:02;;;;;;;7.88;6.25;;;;;;;15.98;70.11;99457.16;4972723;28;20053;-84
2023/08/09 02:38:29;;;;;;;8.40;6.15;;;;;;;16.01;69.53;99455.06;4972507;28;20047;-82
2023/08/09 02:40:56;;;;;;;6.70;6.10;;;;;;;15.97;69.34;99456.31;4955526;28;20142;-82
2023/08/09 02:43:24;;;;;;;9.63;6.93;;;;;;;15.92;69.25;99463.78;4972255;28;20472;-85
2023/08/09 02:45:51;;;;;;;10.35;6.18;;;;;;;15.89;69.35;99461.41;4972210;28;20051;-82
2023/08/09 02:48:18;;;;;;;8.35;6.28;;;;;;;15.83;69.33;99473.38;4972067;28;20101;-82
2023/08/09 02:50:44;;;;;;;7.85;6.72;;;;;;;15.80;69.17;99475.44;4954964;28;20133;-82
2023/08/09 02:53:11;;;;;;;8.57;6.63;;;;;;;15.73;69.51;99472.44;4955279;28;20062;-82
2023/08/09 02:55:38;;;;;;;7.47;6.50;;;;;;;15.68;69.46;99475.50;4972303;28;20130;-81
2023/08/09 02:58:05;;;;;;;9.10;7.13;;;;;;;15.64;69.74;99479.38;4974384;28;20078;-82
2023/08/09 03:00:33;;;;;;;9.35;7.05;;;;;;;15.59;69.75;99481.56;4976067;28;20141;-83
2023/08/09 03:03:04;;;;;;;10.60;7.72;;;;;;;15.57;70.01;99486.16;4975913;28;20042;-82
2023/08/09 03:05:31;;;;;;;9.88;7.28;;;;;;;15.55;70.09;99480.13;4975983;28;20038;-82
2023/08/09 03:07:57;;;;;;;8.60;7.78;;;;;;;15.52;70.22;99485.69;4969153;28;20134;-83
2023/08/09 03:10:24;;;;;;;10.18;8.18;;;;;;;15.50;70.40;99486.66;4970590;28;20051;-82
2023/08/09 03:12:51;;;;;;;11.75;7.57;;;;;;;15.49;70.49;99492.94;4975866;28;20046;-81
2023/08/09 03:15:18;;;;;;;11.18;7.53;;;;;;;15.48;70.43;99493.91;4975922;28;20051;-82
2023/08/09 03:17:45;;;;;;;9.43;7.13;;;;;;;15.46;70.32;99489.69;4958170;28;20047;-82
2023/08/09 03:20:14;;;;;;;8.48;7.28;;;;;;;15.44;70.40;99489.81;4958410;28;20047;-82
2023/08/09 03:22:42;;;;;;;9.05;7.88;;;;;;;15.44;70.44;99503.06;4973913;28;20497;-85
2023/08/09 03:25:10;;;;;;;8.73;7.47;;;;;;;15.43;70.65;99496.09;4958423;28;20057;-82
2023/08/09 03:27:37;;;;;;;9.20;7.97;;;;;;;15.42;70.51;99497.06;4960774;28;20038;-82
2023/08/09 03:30:06;;;;;;;10.98;8.30;;;;;;;15.40;70.79;99492.84;4958265;28;20051;-83
2023/08/09 03:32:33;;;;;;;9.30;7.80;;;;;;;15.39;70.69;99489.34;4975783;28;20053;-83
2023/08/09 03:35:01;;;;;;;11.43;8.45;;;;;;;15.39;70.88;99502.59;4975511;28;20126;-85
2023/08/09 03:37:29;;;;;;;9.05;7.97;;;;;;;15.40;70.90;99503.47;4974888;28;20130;-84
2023/08/09 03:39:57;;;;;;;12.45;8.43;;;;;;;15.39;70.95;99499.13;4975387;28;20137;-82
2023/08/09 03:42:23;;;;;;;10.38;8.50;;;;;;;15.39;71.28;99504.44;4975458;28;20051;-83
2023/08/09 03:44:50;;;;;;;10.23;8.60;;;;;;;15.39;71.15;99510.56;4975218;28;20050;-82
2023/08/09 03:47:17;;;;;;;10.98;9.15;;;;;;;15.43;71.52;99508.50;4958053;28;20125;-82
2023/08/09 03:49:44;;;;;;;9.90;8.90;;;;;;;15.44;71.37;99512.84;4957918;28;20085;-83
2023/08/09 03:52:11;;;;;;;10.43;8.40;;;;;;;15.46;71.37;99522.38;4958117;28;20057;-83
2023/08/09 03:54:38;;;;;;;10.15;9.05;;;;;;;15.46;71.38;99511.75;4975007;28;20074;-82
2023/08/09 03:57:06;;;;;;;12.88;9.57;;;;;;;15.47;71.41;99518.75;4957012;28;20550;-84
2023/08/09 03:59:34;;;;;;;11.02;9.15;;;;;;;15.48;71.20;99522.25;4957611;28;20078;-86
2023/08/09 04:02:05;;;;;;;10.02;8.68;;;;;;;15.47;71.57;99526.69;4974771;28;20058;-83
2023/08/09 04:04:34;;;;;;;11.43;9.40;;;;;;;15.50;71.46;99530.91;4957557;28;20043;-82
2023/08/09 04:07:04;;;;;;;10.95;9.10;;;;;;;15.50;71.38;99531.75;4957307;28;20051;-82
2023/08/09 04:09:33;;;;;;;9.60;8.15;;;;;;;15.51;71.32;99532.59;4974545;28;20043;-83
2023/08/09 04:12:03;;;;;;;10.05;8.05;;;;;;;15.52;71.20;99531.63;4974048;28;20050;-82
2023/08/09 04:14:33;;;;;;;10.45;8.45;;;;;;;15.53;71.09;99543.06;4974470;28;20097;-84
2023/08/09 04:17:00;;;;;;;11.40;8.55;;;;;;;15.53;71.20;99543.94;4956875;28;20065;-83
2023/08/09 04:19:29;;;;;;;11.57;8.25;;;;;;;15.54;70.98;99544.75;4974525;28;20129;-84
2023/08/09 04:21:57;;;;;;;10.80;8.20;;;;;;;15.51;71.13;99545.84;4974486;28;20065;-85
2023/08/09 04:24:23;;;;;;;10.02;8.98;;;;;;;15.51;71.13;99540.53;4957060;28;20094;-83
2023/08/09 04:26:51;;;;;;;11.15;8.27;;;;;;;15.50;71.18;99552.97;4973976;28;20057;-82
2023/08/09 04:29:19;;;;;;;13.23;9.23;;;;;;;15.50;71.21;99558.28;4956654;28;20074;-83
2023/08/09 04:31:48;;;;;;;9.52;7.93;;;;;;;15.50;71.22;99557.44;4974249;28;20138;-83
2023/08/09 04:34:15;;;;;;;11.32;8.10;;;;;;;15.50;71.24;99555.63;4957172;28;20052;-84
2023/08/09 04:36:41;;;;;;;10.35;8.45;;;;;;;15.51;71.08;99569.72;4956692;28;20391;-86
2023/08/09 04:39:09;;;;;;;12.70;9.00;;;;;;;15.50;71.26;99566.25;4974005;28;20054;-83
2023/08/09 04:41:38;;;;;;;10.05;8.05;;;;;;;15.50;71.33;99566.25;4956660;28;20057;-80
2023/08/09 04:44:12;;;;;;;12.40;8.82;;;;;;;15.48;71.51;99568.16;4956102;28;20047;-83
2023/08/09 04:46:46;;;;;;;9.85;8.85;;;;;;;15.53;71.40;99564.28;4972793;28;20600;-83
2023/08/09 04:49:13;;;;;;;10.38;9.27;;;;;;;15.55;71.50;99562.38;4973508;28;20136;-82
2023/08/09 04:51:43;;;;;;;9.40;8.25;;;;;;;15.53;71.52;99567.81;4956705;28;20042;-82
2023/08/09 04:54:11;;;;;;;10.55;8.55;;;;;;;15.56;71.60;99572.88;4955823;28;20047;-83
2023/08/09 04:56:41;;;;;;;11.90;9.27;;;;;;;15.57;71.70;99576.34;4973043;28;20142;-82
2023/08/09 04:59:12;;;;;;;10.48;9.35;;;;;;;15.59;71.74;99577.09;4956165;28;20066;-81
2023/08/09 05:01:41;;;;;;;13.70;8.85;;;;;;;15.62;71.91;99576.81;4973294;28;20117;-84
2023/08/09 05:04:09;;;;;;;16.70;9.90;;;;;;;15.63;71.73;99583.81;4954265;28;20101;-82
2023/08/09 05:06:40;;;;;;;10.20;8.95;;;;;;;15.64;71.68;99588.16;4952802;28;20054;-82
2023/08/09 05:09:10;;;;;;;11.02;9.27;;;;;;;15.65;71.52;99587.19;4954142;29;20480;-82
2023/08/09 05:11:52;;;;;;;9.68;8.65;;;;;;;15.67;71.38;99592.38;4938277;29;20647;-83
2023/08/09 05:14:19;;;;;;;11.10;9.68;;;;;;;15.67;71.52;99593.22;4953953;29;20055;-83
2023/08/09 05:16:45;;;;;;;10.63;9.30;;;;;;;15.68;71.44;99596.69;4953540;29;20078;-84
2023/08/09 05:19:12;;;;;;;11.48;9.23;;;;;;;15.68;71.44;99591.41;4953761;29;20062;-84
2023/08/09 05:21:38;;;;;;;12.82;9.10;;;;;;;15.68;71.51;99597.56;4954122;28;20126;-83
2023/08/09 05:24:05;;;;;;;10.80;8.75;;;;;;;15.68;71.76;99594.91;4953880;29;20043;-83
2023/08/09 05:26:32;;;;;;;11.57;9.00;;;;;;;15.71;71.69;99596.47;4953551;29;20130;-85
2023/08/09 05:28:58;;;;;;;17.35;9.13;;;;;;;15.72;72.00;99600.78;4953796;29;20686;-83
2023/08/09 05:31:25;;;;;;;11.30;8.73;;;;;;;15.74;71.79;99602.34;4953785;29;20130;-83
2023/08/09 05:33:53;;;;;;;9.77;8.45;;;;;;;15.75;71.86;99606.69;4953413;29;20043;-82
2023/08/09 05:36:19;;;;;;;12.25;9.80;;;;;;;15.79;71.75;99604.66;4953121;29;20474;-84
2023/08/09 05:38:46;;;;;;;11.93;9.40;;;;;;;15.81;71.59;99599.22;4953188;29;20130;-82
2023/08/09 05:41:12;;;;;;;11.00;9.45;;;;;;;15.83;71.71;99611.38;4936595;29;20043;-82
2023/08/09 05:43:39;;;;;;;11.75;8.60;;;;;;;15.84;71.48;99613.06;4953608;29;20045;-82
2023/08/09 05:46:06;;;;;;;9.05;8.15;;;;;;;15.87;71.67;99611.97;4953625;29;20055;-83
2023/08/09 05:48:32;;;;;;;11.85;8.65;;;;;;;15.88;71.64;99611.84;4953291;29;20051;-82
2023/08/09 05:50:59;;;;;;;9.57;8.50;;;;;;;15.90;71.77;99617.03;4953425;29;20130;-82
2023/08/09 05:53:25;;;;;;;9.68;8.68;;;;;;;15.92;71.80;99615.09;4936356;29;20106;-82
2023/08/09 05:55:52;;;;;;;13.63;9.40;;;;;;;15.95;71.83;99625.50;4935758;29;20500;-82
2023/08/09 05:58:20;;;;;;;10.20;8.90;;;;;;;15.99;71.76;99620.75;4952010;29;20126;-83
2023/08/09 06:00:48;;;;;;;14.20;8.68;;;;;;;16.01;71.59;99622.31;4935471;29;20480;-82
2023/08/09 06:03:16;;;;;;;9.55;8.50;;;;;;;16.05;71.74;99630.03;4935446;29;20119;-82
2023/08/09 06:05:43;;;;;;;10.07;8.95;;;;;;;16.08;71.56;99640.41;4953013;29;20055;-82
2023/08/09 06:08:09;;;;;;;13.40;9.50;;;;;;;16.12;72.21;99634.72;4952564;29;20133;-81
2023/08/09 06:10:36;;;;;;;10.70;8.20;;;;;;;16.17;72.37;99637.00;4935759;29;20527;-81
2023/08/09 06:13:05;;;;;;;10.95;8.68;;;;;;;16.22;71.63;99649.91;4936432;29;20082;-82
2023/08/09 06:15:32;;;;;;;8.18;7.40;;;;;;;16.26;71.51;99646.84;4953484;29;20043;-82
2023/08/09 06:17:58;;;;;;;10.40;8.25;;;;;;;16.30;71.40;99650.13;4953001;29;20142;-82
2023/08/09 06:20:27;;;;;;;10.07;7.63;;;;;;;16.32;71.32;99645.50;4953197;29;20087;-82
2023/08/09 06:22:54;;;;;;;10.15;7.75;;;;;;;16.36;71.46;99651.41;4936442;29;20051;-82
2023/08/09 06:25:21;;;;;;;10.23;8.43;;;;;;;16.37;71.56;99647.78;4953025;29;20047;-82
2023/08/09 06:27:47;;;;;;;10.23;7.80;;;;;;;16.43;71.90;99655.25;4953102;29;20130;-82
2023/08/09 06:30:14;;;;;;;10.82;7.70;;;;;;;16.48;71.66;99657.53;4953424;29;20050;-82
2023/08/09 06:32:41;;;;;;;9.30;7.35;;;;;;;16.51;71.28;99666.06;4957173;28;20090;-82
2023/08/09 06:35:09;;;;;;;9.40;7.85;;;;;;;16.54;71.29;99659.66;4959661;29;20082;-81
2023/08/09 06:37:36;;;;;;;7.30;6.28;;;;;;;16.57;71.17;99663.88;4959090;29;20043;-81
2023/08/09 06:40:06;;;;;;;9.80;7.55;;;;;;;16.59;70.94;99667.25;4959328;28;20051;-81
2023/08/09 06:42:33;;;;;;;11.80;8.02;;;;;;;16.60;70.86;99668.94;4942386;29;20099;-84
2023/08/09 06:45:00;;;;;;;7.57;6.80;;;;;;;16.62;70.87;99661.66;4959345;29;20491;-82
2023/08/09 06:47:27;;;;;;;10.38;7.57;;;;;;;16.64;70.98;99665.88;4942000;29;20122;-82
2023/08/09 06:49:54;;;;;;;9.52;7.68;;;;;;;16.67;71.03;99670.94;4959337;29;20058;-83
2023/08/09 06:52:20;;;;;;;10.35;7.45;;;;;;;16.69;70.79;99684.09;4942217;29;20051;-82
2023/08/09 06:54:47;;;;;;;9.63;7.30;;;;;;;16.71;70.57;99686.63;4959532;28;20085;-81
2023/08/09 06:57:19;;;;;;;10.65;7.50;;;;;;;16.71;70.70;99687.44;4959245;28;20051;-82
2023/08/09 06:59:47;;;;;;;8.98;6.95;;;;;;;16.72;70.59;99690.97;4959302;29;20047;-81
2023/08/09 07:02:14;;;;;;;9.57;6.70;;;;;;;16.72;70.50;99693.63;4942398;29;20047;-81
2023/08/09 07:04:41;;;;;;;8.43;6.07;;;;;;;16.72;70.32;99693.63;4959257;29;20048;-82
2023/08/09 07:07:08;;;;;;;7.15;5.95;;;;;;;16.72;70.13;99702.44;4958780;29;20051;-81
2023/08/09 07:09:34;;;;;;;6.43;5.82;;;;;;;16.73;70.67;99703.28;4959489;28;20105;-81
2023/08/09 07:12:01;;;;;;;9.30;6.60;;;;;;;16.73;70.74;99706.78;4959418;28;20137;-82
2023/08/09 07:14:27;;;;;;;8.98;6.80;;;;;;;16.76;70.90;99706.53;4959226;28;20122;-82
2023/08/09 07:16:54;;;;;;;8.80;6.90;;;;;;;16.79;70.87;99710.75;4958907;29;20114;-82
2023/08/09 07:19:21;;;;;;;8.13;6.93;;;;;;;16.83;70.97;99711.31;4959047;29;20050;-81
2023/08/09 07:21:48;;;;;;;6.85;6.13;;;;;;;16.86;70.81;99717.22;4959309;28;20047;-82
2023/08/09 07:24:14;;;;;;;7.22;6.15;;;;;;;16.88;70.87;99719.75;4959244;28;20051;-82
2023/08/09 07:26:41;;;;;;;9.63;6.22;;;;;;;16.91;70.55;99730.13;4941665;29;20134;-82
2023/08/09 07:29:08;;;;;;;8.02;6.65;;;;;;;16.95;70.79;99734.22;4958896;29;20039;-83
2023/08/09 07:31:35;;;;;;;10.77;6.80;;;;;;;16.99;71.07;99734.78;4958954;29;20047;-81
2023/08/09 07:34:02;;;;;;;8.27;6.35;;;;;;;17.03;70.67;99736.22;4958864;28;20551;-82
2023/08/09 07:36:29;;;;;;;7.63;5.43;;;;;;;17.08;70.58;99735.88;4958965;28;20133;-82
2023/08/09 07:38:57;;;;;;;6.50;5.05;;;;;;;17.11;70.22;99736.44;4959169;29;20078;-81
2023/08/09 07:41:23;;;;;;;7.53;5.50;;;;;;;17.14;69.99;99733.53;4958997;29;20047;-82
2023/08/09 07:43:50;;;;;;;5.15;4.40;;;;;;;17.17;70.12;99737.75;4956227;28;20047;-81
2023/08/09 07:46:16;;;;;;;6.22;5.32;;;;;;;17.21;69.83;99739.19;4955849;29;20126;-82
2023/08/09 07:48:43;;;;;;;6.60;5.20;;;;;;;17.25;70.18;99735.28;4955658;29;20066;-82
2023/08/09 07:51:11;;;;;;;7.22;5.70;;;;;;;17.29;70.44;99733.19;4956015;29;20047;-82
2023/08/09 07:53:39;;;;;;;7.35;5.72;;;;;;;17.34;70.48;99741.63;4955939;29;20098;-82
2023/08/09 07:56:05;;;;;;;5.97;5.28;;;;;;;17.38;70.04;99745.69;4955882;29;20444;-82
2023/08/09 07:58:32;;;;;;;7.82;5.25;;;;;;;17.44;69.86;99752.31;4955429;29;20106;-82
2023/08/09 08:00:59;;;;;;;6.22;4.60;;;;;;;17.47;69.60;99762.69;4938673;29;20078;-83
2023/08/09 08:03:25;;;;;;;5.72;4.15;;;;;;;17.52;69.38;99762.28;4955581;29;20102;-81
2023/08/09 08:05:52;;;;;;;5.53;4.90;;;;;;;17.55;68.99;99757.56;4955874;29;20047;-82
2023/08/09 08:08:18;;;;;;;4.72;4.22;;;;;;;17.60;69.51;99767.78;4955192;29;20047;-82
2023/08/09 08:10:45;;;;;;;5.75;4.13;;;;;;;17.65;69.49;99767.41;4955684;29;20075;-82
2023/08/09 08:13:12;;;;;;;6.38;4.38;;;;;;;17.69;69.40;99759.00;4938553;29;20055;-81
2023/08/09 08:15:39;;;;;;;4.88;3.65;;;;;;;17.77;69.68;99762.81;4955267;29;20047;-82
2023/08/09 08:18:06;;;;;;;5.70;3.40;;;;;;;17.82;69.32;99764.09;4954942;29;20518;-82
2023/08/09 08:20:34;;;;;;;5.13;3.20;;;;;;;17.90;68.78;99763.44;4955349;29;20047;-82
2023/08/09 08:23:00;;;;;;;4.72;3.10;;;;;;;17.97;68.68;99766.38;4955422;29;20050;-82
2023/08/09 08:25:27;;;;;;;4.75;3.30;;;;;;;18.04;68.74;99764.03;4955205;29;20051;-81
2023/08/09 08:27:53;;;;;;;5.18;3.55;;;;;;;18.13;68.73;99762.41;4954915;29;20234;-82
2023/08/09 08:30:21;;;;;;;5.13;3.35;;;;;;;18.19;68.43;99759.19;4937923;29;20062;-82
2023/08/09 08:32:49;;;;;;;5.30;3.42;;;;;;;18.27;68.14;99766.50;4955280;29;20059;-83
2023/08/09 08:35:20;;;;;;;4.10;2.92;;;;;;;18.34;68.15;99768.47;4955037;29;20455;-82
2023/08/09 08:37:53;;;;;;;7.25;2.72;;;;;;;18.42;67.59;99769.59;4954717;29;20054;-82
2023/08/09 08:40:21;;;;;;;2.60;2.30;;;;;;;18.53;67.95;99769.47;4955057;29;20495;-83
2023/08/09 08:42:49;;;;;;;3.72;2.75;;;;;;;18.62;67.99;99773.97;4954760;29;20419;-82
2023/08/09 08:45:16;;;;;;;3.78;2.50;;;;;;;18.70;67.88;99780.44;4955021;29;20098;-81
2023/08/09 08:47:45;;;;;;;3.22;2.40;;;;;;;18.78;66.91;99785.91;4954442;29;20078;-83
2023/08/09 08:50:14;;;;;;;3.88;2.45;;;;;;;18.86;66.50;99777.19;4937701;29;20495;-82
2023/08/09 08:52:46;;;;;;;5.15;2.58;;;;;;;18.97;67.14;99770.88;4954701;29;20055;-83
2023/08/09 08:55:14;;;;;;;3.17;2.33;;;;;;;19.09;66.82;99782.25;4954288;28;20062;-82
2023/08/09 08:57:42;;;;;;;3.40;1.42;;;;;;;19.20;66.26;99778.59;4954190;29;20375;-83
2023/08/09 09:00:15;;;;;;;3.47;2.10;;;;;;;19.30;66.02;99784.75;4954533;29;20078;-81
2023/08/09 09:02:52;;;;;;;;;;;;;;;19.38;65.85;99776.88;4939370;29;20058;-82
2023/08/09 09:05:19;;;;;;;3.42;1.98;;;;;;;19.55;65.49;99778.94;4954703;29;19918;-82
2023/08/09 09:07:56;;;;;;;4.65;1.83;;;;;;;19.63;65.21;99779.06;4953959;29;20544;-83
2023/08/09 09:10:24;;;;;;;3.97;1.73;;;;;;;19.71;65.00;99787.19;4937579;29;20408;-82
2023/08/09 09:12:53;;;;;;;3.50;1.80;;;;;;;19.81;64.71;99796.97;4954472;29;20133;-81
2023/08/09 09:15:20;;;;;;;4.90;2.28;;;;;;;19.90;64.64;99788.94;4937532;29;20043;-82
2023/08/09 09:17:48;;;;;;;2.17;1.38;;;;;;;19.99;62.98;99786.34;4953896;29;20499;-83
2023/08/09 09:20:29;;;;;;;2.30;1.40;;;;;;;20.03;61.46;99785.94;4954061;29;20043;-82
2023/08/09 09:22:57;;;;;;;2.35;1.70;;;;;;;20.12;62.77;99792.22;4954334;29;20047;-83
2023/08/09 09:25:23;;;;;;;3.95;1.48;;;;;;;20.20;63.16;99782.59;4954300;29;20062;-82
2023/08/09 09:27:54;;;;;;;1.83;1.63;;;;;;;20.24;61.44;99786.66;4953880;29;20230;-82
2023/08/09 09:30:24;;;;;;;2.63;1.55;;;;;;;20.34;62.43;99795.47;4937021;29;20139;-82
2023/08/09 09:32:51;;;;;;;2.90;1.48;;;;;;;20.42;61.57;99806.22;4936814;29;20055;-82
2023/08/09 09:35:21;;;;;;;1.73;1.45;;;;;;;20.52;60.84;99800.00;4954124;29;20083;-82
2023/08/09 09:37:50;;;;;;;1.25;0.98;;;;;;;20.58;60.57;99804.72;4953820;29;20051;-82
2023/08/09 09:40:23;;;;;;;1.58;1.15;;;;;;;20.64;58.06;99809.47;4936893;29;20043;-82
2023/08/09 09:42:55;;;;;;;3.75;1.17;;;;;;;20.72;58.36;99806.03;4953884;29;20106;-82
2023/08/09 09:45:24;;;;;;;3.55;1.65;;;;;;;20.82;60.53;99809.47;4936845;29;20230;-82
2023/08/09 09:47:53;;;;;;;2.25;1.40;;;;;;;20.90;60.14;99810.56;4953437;29;20082;-83
2023/08/09 09:50:24;;;;;;;3.92;1.30;;;;;;;20.98;58.90;99815.16;4953764;29;20043;-82
2023/08/09 09:52:50;;;;;;;1.80;1.20;;;;;;;21.07;60.47;99812.41;4953789;29;20514;-82
2023/08/09 09:55:20;;;;;;;3.13;1.25;;;;;;;21.16;60.64;99813.28;4953707;29;20043;-82
2023/08/09 09:57:47;;;;;;;4.88;0.90;;;;;;;21.26;60.01;99818.56;4936212;29;20059;-82
2023/08/09 10:00:20;;;;;;;2.78;1.30;;;;;;;21.35;59.80;99814.09;4953498;29;20051;-82
2023/08/09 10:02:49;;;;;;;2.83;1.30;;;;;;;21.44;58.74;99812.31;4953652;29;20054;-82
2023/08/09 10:05:19;;;;;;;1.20;1.10;;;;;;;21.50;58.14;99816.19;4936451;29;20062;-82
2023/08/09 10:07:46;;;;;;;1.77;1.08;;;;;;;21.55;58.00;99816.56;4952440;28;20495;-83
2023/08/09 10:10:19;;;;;;;1.60;1.00;;;;;;;21.58;57.97;99821.59;4953369;29;20084;-82
2023/08/09 10:12:55;;;;;;;0.93;0.80;;;;;;;21.57;55.67;99817.25;4936455;29;20079;-83
2023/08/09 10:15:27;;;;;;;1.52;0.88;;;;;;;21.60;55.81;99828.50;4936468;29;20047;-82
2023/08/09 10:18:02;;;;;;;1.95;1.02;;;;;;;21.60;54.47;99830.31;4952999;29;20102;-82
2023/08/09 10:20:30;;;;;;;3.35;0.90;;;;;;;21.60;56.18;99827.63;4953323;29;20137;-82
2023/08/09 10:22:58;;;;;;;1.35;1.00;;;;;;;21.61;56.12;99829.34;4935981;29;20055;-82
2023/08/09 10:25:47;;;;;;;1.88;1.00;;;;;;;21.61;55.69;99830.16;4953506;29;20054;-81
2023/08/09 10:28:13;;;;;;;1.27;0.90;;;;;;;21.71;56.20;99822.03;4952696;29;20090;-82
2023/08/09 10:30:46;;;;;;;2.97;1.00;;;;;;;21.78;55.86;99824.09;4953153;29;20090;-82
2023/08/09 10:33:20;;;;;;;1.20;0.95;;;;;;;21.89;56.26;99841.72;4952879;29;20515;-82
2023/08/09 10:35:52;;;;;;;2.08;0.73;;;;;;;21.96;54.76;99832.91;4936162;29;20055;-82
2023/08/09 10:38:19;;;;;;;1.40;0.93;;;;;;;22.08;55.83;99835.28;4952779;29;20050;-81
2023/08/09 10:40:52;;;;;;;2.05;1.10;;;;;;;22.19;55.84;99835.00;4953222;29;20047;-82
2023/08/09 10:43:20;;;;;;;2.10;1.02;;;;;;;22.31;56.29;99832.03;4952996;29;20087;-82
2023/08/09 10:45:49;;;;;;;2.58;0.75;;;;;;;22.42;54.58;99836.25;4935864;29;20047;-82
2023/08/09 10:48:19;;;;;;;1.02;0.70;;;;;;;22.54;53.74;99840.28;4952791;29;20047;-82
2023/08/09 10:50:45;;;;;;;3.03;0.90;;;;;;;22.65;53.60;99831.13;4936043;29;20082;-82
2023/08/09 10:53:21;;;;;;;1.70;0.80;;;;;;;22.74;52.88;99840.03;4953131;29;20429;-81
2023/08/09 10:55:49;;;;;;;1.20;0.77;;;;;;;22.92;53.83;99829.16;4952987;29;20476;-82
2023/08/09 10:58:15;;;;;;;1.15;0.60;;;;;;;23.14;55.35;99841.06;4952578;29;20074;-82
2023/08/09 11:00:42;;;;;;;1.85;0.77;;;;;;;23.42;55.34;99834.53;4936031;29;20531;-82
2023/08/09 11:03:10;;;;;;;0.88;0.70;;;;;;;23.75;53.89;99836.31;4953099;29;20443;-82
2023/08/09 11:05:37;;;;;;;2.03;0.98;;;;;;;24.19;54.60;99837.72;4953076;29;20383;-82
2023/08/09 11:08:09;;;;;;;2.65;0.90;;;;;;;24.69;52.27;99843.66;4952581;29;20039;-82
2023/08/09 11:10:38;;;;;;;2.05;0.60;;;;;;;25.28;54.13;99837.84;4952807;29;20125;-83
2023/08/09 11:13:11;;;;;;;1.25;0.75;;;;;;;25.89;50.52;99836.91;4952927;29;20479;-81
2023/08/09 11:15:42;;;;;;;1.00;0.47;;;;;;;26.42;49.06;99838.63;4952854;29;20061;-83
2023/08/09 11:18:08;;;;;;;1.02;0.60;;;;;;;26.80;48.82;99843.00;4953520;28;20076;-82
2023/08/09 11:20:35;;;;;;;1.52;0.75;;;;;;;26.99;46.91;99838.00;4956540;29;20058;-83
2023/08/09 11:23:03;;;;;;;0.98;0.77;;;;;;;26.99;44.75;99841.50;4956306;29;20050;-81
2023/08/09 11:25:34;;;;;;;1.35;0.80;;;;;;;26.93;45.02;99837.72;4956479;29;20070;-82
2023/08/09 11:28:04;;;;;;;1.13;0.63;;;;;;;26.92;44.49;99837.91;4955963;29;20139;-82
2023/08/09 11:30:32;;;;;;;1.08;0.80;;;;;;;26.98;46.07;99841.72;4955970;29;20133;-83
2023/08/09 11:33:00;;;;;;;1.45;0.90;;;;;;;27.04;44.94;99847.19;4956088;29;20051;-82
2023/08/09 11:35:31;;;;;;;1.20;0.70;;;;;;;27.13;44.06;99834.38;4938889;29;20387;-82
2023/08/09 11:37:58;;;;;;;1.05;0.70;;;;;;;27.30;46.02;99844.91;4938548;29;20376;-82